Forside
METAR-TAF:

METAR-TAF

Lufthavne :

Jönköping Airport

Jönköping, Sverige

Breddekreds: 57-46N, længdekreds: 014-05E, højde: 226 m

Aktuelle vejr

Denne rapport blev lavet for 10 minutter siden, kl. 02:50 UTC
Vind 2 kt fra nordnordvest
Temperatur 6°C
Fugtighed 93%
Tryk 1019 hPa
Sigt 10 km eller mere

METAR: ESGJ 250250Z AUTO 33002KT 9999 OVC011/// 06/05 Q1019

Tid: 05:00 (03:00 UTC)


TAF: fraværende

Vejrobservationer og prognoser fra mere end 4000 lufthavne (METAR og TAF).

De gule og røde prikker repræsenterer de meteorologiske stationer.

Flyt musen over at se navnet på stationen.

Så klik over at se vejr observationer og prognoser.

At skifte det kort: Klik på de grønne knapper med et sort kors for at zoome ind; på den grønne knap med en bindestreg for at zoome ud; eller på de grønne pile for tilstødende kort.


METAR-TAF: